Carnes, Mississippi
Current Conditions -  °F | °C
As of 1:53 AM on Monday 24 Nov 2014 (Local Time) from KHBG Reporting Station
Clear Clear  
Wind Chill: 67°   Ceiling: Unl
Heat Index: 67°   Visibility: 10mi
Dew Point: 63°   Wind: 8mph
Humidity: 87%   Direction: 210°SSW
Pressure: 29.73"   Gusts: NA
Location:  31.0601°N, 89.4815°W
Report Text: KHBG 240753Z AUTO 21007KT 10SM CLR 19/17 A2973 RMK AO2 SLP066 T01940172
Loading
Personal Weather Stations






























Interactive Weather Map New forecast layout! Learn more

10-Day Weather Forecast

Advertisements
Track Severe Weather on mobile